Observations for BRISTOL LULSGATE, United Kingdom (EGGD)

EGGD 240920Z AUTO 26005KT 210V310 9999 BKN010 BKN032 18/16 Q1016
EGGD 240850Z AUTO 25006KT 220V290 9999 SCT009 SCT033 19/16 Q1016
EGGD 240820Z AUTO 26004KT 210V300 9000 BKN032 18/16 Q1015   
EGGD 240750Z 26004KT 220V290 6000 SCT039 18/16 Q1015
EGGD 240720Z 06006KT 7000 SCT041 17/15 Q1015
EGGD 240650Z 05006KT 7000 SCT048 17/15 Q1014
EGGD 240620Z 05006KT 8000 BKN048 16/14 Q1014
EGGD 240550Z AUTO 05006KT 9000 BKN049 16/14 Q1014   
EGGD 240520Z AUTO 05007KT 9000 NCD 16/14 Q1014  
EGGD 240450Z AUTO 05006KT 7000 NCD 15/14 Q1013  
EGGD 240420Z AUTO 05006KT 6000 NCD 15/14 Q1013  
EGGD 240350Z AUTO 06006KT 8000 NCD 15/14 Q1013  
EGGD 240320Z AUTO 07003KT 7000 BKN049 15/14 Q1013   
EGGD 240250Z AUTO 07005KT 6000 NCD 15/14 Q1013  
EGGD 240220Z AUTO 06004KT 6000 NCD 15/14 Q1013  
EGGD 240150Z AUTO 07006KT 4800 HZ NCD 15/14 Q1013   
EGGD 240120Z AUTO 08004KT 8000 NCD 15/14 Q1013  
EGGD 240050Z AUTO 10006KT 9999 NCD 16/14 Q1014  
EGGD 240020Z AUTO 10008KT 9999 NCD 17/14 Q1014  
EGGD 232350Z AUTO 10009KT 9999 NCD 17/14 Q1013  
EGGD 232320Z AUTO 10009KT 9999 NCD 17/14 Q1013  
EGGD 232250Z 10012KT CAVOK 17/14 Q1014  
EGGD 232220Z 10012KT 9999 FEW042 18/14 1014 
EGGD 232120Z 10011KT 9999 FEW041 18/15 Q1014
EGGD 232050Z AUTO 09010KT 9999 FEW041 18/15 Q1014   
EGGD 232020Z AUTO 11010KT 9999 NCD 19/15 Q1014  
EGGD 231950Z AUTO 11009KT 9999 NCD 19/15 Q1014  
EGGD 231920Z AUTO 11010KT 9999 NCD 19/15 Q1013  
EGGD 231850Z AUTO 11013KT 9999 NCD 19/15 Q1013  
EGGD 231820Z AUTO 10017KT 9999 NCD 19/15 Q1013  
EGGD 231750Z AUTO 09015KT 9999 NCD 19/15 Q1013  
EGGD 231720Z AUTO 09013KT 9999 NCD 19/15 Q1013  
EGGD 231650Z AUTO 09014KT 9999 NCD 19/15 Q1013  
EGGD 231620Z AUTO 09015KT 9999 NCD 19/15 Q1013  
EGGD 231550Z AUTO 09012KT 9999 NCD 18/16 Q1014  
EGGD 231520Z AUTO 09013KT 9999 -RA FEW035 19/16 Q1014   
EGGD 231450Z 08010KT CAVOK 19/16 Q1015  
EGGD 231020Z 090/13KT CAVOK 19/13 Q1016 NOSIG   
EGGD 230950Z 100/14KT 9999 NSC 17/12 Q1017 NOSIG